TimeCST,TemperatureF,Dew PointF,Humidity,Sea Level PressureIn,VisibilityMPH,Wind Direction,Wind SpeedMPH,Gust SpeedMPH,PrecipitationIn,Events,Conditions,WindDirDegrees,DateUTC
12:53 AM,52.0,46.0,80,30.18,10.0,NNW,10.4,-,N/A,,Clear,330,2012-02-05 06:53:00
1:49 AM,51.8,46.4,82,30.17,10.0,NNW,10.4,17.3,N/A,,Mostly Cloudy,340,2012-02-05 07:49:00
1:53 AM,51.1,46.0,83,30.19,10.0,NNW,10.4,-,N/A,,Overcast,330,2012-02-05 07:53:00
2:53 AM,50.0,45.0,83,30.19,10.0,NNW,9.2,-,N/A,,Overcast,330,2012-02-05 08:53:00
3:26 AM,50.0,44.6,82,30.17,10.0,NW,12.7,-,N/A,,Overcast,320,2012-02-05 09:26:00
3:53 AM,48.9,44.1,83,30.19,10.0,NW,10.4,-,N/A,,Overcast,320,2012-02-05 09:53:00
4:08 AM,48.2,44.6,87,30.17,10.0,NW,9.2,-,N/A,,Overcast,320,2012-02-05 10:08:00
4:39 AM,48.2,42.8,82,30.19,10.0,NW,11.5,-,N/A,,Overcast,320,2012-02-05 10:39:00
4:53 AM,48.0,43.0,83,30.21,10.0,NW,12.7,-,N/A,,Overcast,320,2012-02-05 10:53:00
5:53 AM,46.9,42.1,83,30.22,10.0,NNW,11.5,-,N/A,,Overcast,340,2012-02-05 11:53:00
6:53 AM,46.0,41.0,83,30.24,10.0,NNW,10.4,-,N/A,,Overcast,340,2012-02-05 12:53:00
7:03 AM,46.4,41.0,81,30.22,10.0,NNW,10.4,17.3,N/A,,Overcast,340,2012-02-05 13:03:00
7:53 AM,46.0,39.9,79,30.27,10.0,NNW,9.2,-,N/A,,Overcast,340,2012-02-05 13:53:00
8:53 AM,46.0,39.9,79,30.27,10.0,North,9.2,-,N/A,,Overcast,360,2012-02-05 14:53:00
9:53 AM,46.0,39.0,76,30.28,10.0,North,15.0,21.9,N/A,,Mostly Cloudy,360,2012-02-05 15:53:00
10:53 AM,46.9,39.0,74,30.29,10.0,North,11.5,-,N/A,,Mostly Cloudy,350,2012-02-05 16:53:00
11:53 AM,48.0,39.0,71,30.30,10.0,NNW,9.2,-,N/A,,Overcast,330,2012-02-05 17:53:00
12:53 PM,48.0,39.9,74,30.27,10.0,NNW,9.2,-,N/A,,Overcast,340,2012-02-05 18:53:00
1:53 PM,48.0,39.9,74,30.25,10.0,NNW,11.5,-,N/A,,Overcast,340,2012-02-05 19:53:00
2:53 PM,48.0,39.9,74,30.24,10.0,North,10.4,-,N/A,,Overcast,350,2012-02-05 20:53:00
3:53 PM,48.0,39.9,74,30.25,10.0,NNW,9.2,-,N/A,,Overcast,340,2012-02-05 21:53:00
4:53 PM,48.0,39.9,74,30.25,10.0,North,5.8,-,N/A,,Overcast,350,2012-02-05 22:53:00
5:53 PM,48.0,39.0,71,30.25,10.0,North,10.4,-,N/A,,Overcast,350,2012-02-05 23:53:00
6:53 PM,46.9,39.9,77,30.26,10.0,North,6.9,-,N/A,,Mostly Cloudy,350,2012-02-06 00:53:00
7:06 PM,46.4,39.2,76,30.25,10.0,North,6.9,-,N/A,,Scattered Clouds,350,2012-02-06 01:06:00
7:53 PM,46.9,39.9,77,30.28,10.0,North,8.1,-,N/A,,Mostly Cloudy,350,2012-02-06 01:53:00
8:31 PM,46.4,39.2,76,30.27,10.0,North,5.8,-,N/A,,Overcast,350,2012-02-06 02:31:00
8:53 PM,46.9,39.0,74,30.29,10.0,North,8.1,-,N/A,,Overcast,360,2012-02-06 02:53:00
9:53 PM,45.0,37.9,76,30.28,10.0,North,6.9,-,N/A,,Scattered Clouds,360,2012-02-06 03:53:00
10:53 PM,43.0,37.9,82,30.29,10.0,NNW,5.8,-,N/A,,Clear,330,2012-02-06 04:53:00
11:53 PM,43.0,37.0,80,30.28,10.0,North,6.9,-,N/A,,Clear,350,2012-02-06 05:53:00